DEKCM EDLW-ZZZZ

Flight info

Callsign DEKCM
Flight time N/A
Altitude
Route
Aircraft DA40

Departure

Time 2026-05-06 16:48
Airport Dortmund Airport (EDLW)

Arrival

Time N/A
Airport ZZZZ
Time Latitude Longitude Altitude Speed Heading
2026-05-06 16:40 51.51254 7.60556 457 ft 0 kts 103°
2026-05-06 16:42 51.51254 7.60557 457 ft 1 kts 103°
2026-05-06 16:42 51.51289 7.60574 452 ft 12 kts 282°
2026-05-06 16:42 51.51239 7.60419 451 ft 18 kts 241°
2026-05-06 16:42 51.51175 7.60262 454 ft 11 kts 227°
2026-05-06 16:43 51.51164 7.60160 454 ft 12 kts 322°
2026-05-06 16:43 51.51220 7.60230 434 ft 15 kts 63°
2026-05-06 16:43 51.51265 7.60356 438 ft 14 kts 60°
2026-05-06 16:43 51.51313 7.60495 432 ft 14 kts 61°
2026-05-06 16:44 51.51367 7.60649 435 ft 17 kts 60°
2026-05-06 16:44 51.51415 7.60784 432 ft 15 kts 60°
2026-05-06 16:44 51.51459 7.60910 430 ft 9 kts 60°
2026-05-06 16:44 51.51495 7.61009 428 ft 10 kts 62°
2026-05-06 16:45 51.51543 7.61057 426 ft 8 kts 347°
2026-05-06 16:45 51.51573 7.60983 423 ft 10 kts 260°
2026-05-06 16:45 51.51552 7.60856 416 ft 14 kts 251°
2026-05-06 16:45 51.51527 7.60709 416 ft 11 kts 262°
2026-05-06 16:46 51.51526 7.60680 412 ft 0 kts 287°
2026-05-06 16:46 51.51528 7.60672 416 ft 6 kts 293°
2026-05-06 16:46 51.51558 7.60615 415 ft 12 kts 334°
2026-05-06 16:47 51.51640 7.60679 417 ft 19 kts 61°
2026-05-06 16:47 51.51796 7.61116 414 ft 73 kts 60°
2026-05-06 16:47 51.52104 7.61795 677 ft 69 kts 31°
2026-05-06 16:47 51.52552 7.61641 854 ft 77 kts 302°
2026-05-06 16:48 51.52513 7.60799 1037 ft 85 kts 253°
2026-05-06 16:48 51.52322 7.59840 1176 ft 93 kts 253°
2026-05-06 16:48 51.52152 7.58905 1229 ft 84 kts 253°
2026-05-06 16:48 51.52003 7.58021 1188 ft 77 kts 253°
2026-05-06 16:49 51.51865 7.57204 1050 ft 74 kts 257°
2026-05-06 16:49 51.51682 7.56434 1011 ft 78 kts 224°
2026-05-06 16:49 51.51167 7.56330 1014 ft 88 kts 146°
2026-05-06 16:49 51.50909 7.57142 940 ft 78 kts 102°
2026-05-06 16:50 51.50901 7.57989 791 ft 83 kts 81°
2026-05-06 16:50 51.51050 7.58858 705 ft 81 kts 70°
2026-05-06 16:50 51.51288 7.59658 595 ft 78 kts 60°
2026-05-06 16:50 51.51548 7.60396 447 ft 75 kts 60°
2026-05-06 16:51 51.51792 7.61094 415 ft 66 kts 61°
2026-05-06 16:51 51.52027 7.61746 487 ft 72 kts 53°
2026-05-06 16:51 51.52458 7.61907 697 ft 74 kts 317°
2026-05-06 16:51 51.52438 7.61115 851 ft 83 kts 251°
2026-05-06 16:52 51.52272 7.60218 955 ft 86 kts 255°
2026-05-06 16:52 51.52116 7.59284 935 ft 80 kts 253°
2026-05-06 16:52 51.51832 7.58599 858 ft 76 kts 201°
2026-05-06 16:52 51.51361 7.58783 786 ft 76 kts 149°
2026-05-06 16:53 51.51228 7.59472 644 ft 78 kts 64°
2026-05-06 16:53 51.51487 7.60231 460 ft 75 kts 60°
2026-05-06 16:53 51.51727 7.60907 416 ft 67 kts 60°
2026-05-06 16:53 51.52070 7.61431 632 ft 70 kts
2026-05-06 16:54 51.52416 7.60960 827 ft 72 kts 270°
2026-05-06 16:54 51.52238 7.60138 982 ft 85 kts 248°
2026-05-06 16:54 51.52032 7.59336 946 ft 72 kts 248°
2026-05-06 16:54 51.51717 7.58763 852 ft 71 kts 189°
2026-05-06 16:55 51.51268 7.59046 726 ft 75 kts 136°
2026-05-06 16:55 51.51328 7.59781 556 ft 72 kts 58°
2026-05-06 16:55 51.51566 7.60456 432 ft 65 kts 60°
2026-05-06 16:55 51.51782 7.61054 416 ft 68 kts 60°
2026-05-06 16:56 51.52136 7.61548 637 ft 71 kts 354°
2026-05-06 16:56 51.52465 7.61102 853 ft 68 kts 267°
2026-05-06 16:56 51.52291 7.60299 943 ft 78 kts 247°
2026-05-06 16:56 51.52071 7.59493 955 ft 79 kts 246°
2026-05-06 16:57 51.51719 7.58888 932 ft 77 kts 185°
2026-05-06 16:57 51.51226 7.59215 827 ft 78 kts 130°
2026-05-06 16:57 51.51397 7.59982 618 ft 83 kts 60°
2026-05-06 16:57 51.51685 7.60792 421 ft 79 kts 60°
2026-05-06 16:58 51.51968 7.61499 521 ft 72 kts 39°
2026-05-06 16:58 51.52343 7.61311 711 ft 75 kts 267°
2026-05-06 16:58 51.52145 7.60530 882 ft 83 kts 248°
2026-05-06 16:58 51.51928 7.59709 896 ft 79 kts 248°
2026-05-06 16:59 51.51679 7.58914 829 ft 79 kts 225°
2026-05-06 16:59 51.51200 7.58988 692 ft 78 kts 141°
2026-05-06 16:59 51.51301 7.59684 558 ft 74 kts 58°
2026-05-06 16:59 51.51541 7.60394 455 ft 69 kts 59°
2026-05-06 17:00 51.51763 7.61023 415 ft 61 kts 60°
2026-05-06 17:00 51.51996 7.61737 553 ft 74 kts 72°
2026-05-06 17:00 51.51873 7.62453 800 ft 71 kts 149°
2026-05-06 17:00 51.51447 7.62240 1002 ft 75 kts 236°
2026-05-06 17:01 51.51170 7.61446 1054 ft 81 kts 244°
2026-05-06 17:01 51.50936 7.60660 961 ft 80 kts 248°
2026-05-06 17:01 51.50975 7.59736 858 ft 105 kts 336°
2026-05-06 17:01 51.51563 7.60463 438 ft 137 kts 60°
2026-05-06 17:02 51.52020 7.61766 647 ft 95 kts 69°
2026-05-06 17:02 51.51837 7.62478 1133 ft 75 kts 163°
2026-05-06 17:02 51.51435 7.62056 1123 ft 79 kts 241°
2026-05-06 17:02 51.51178 7.61214 1084 ft 85 kts 242°
2026-05-06 17:03 51.50927 7.60403 961 ft 80 kts 249°
2026-05-06 17:03 51.50871 7.59551 824 ft 77 kts 297°
2026-05-06 17:03 51.51276 7.59626 600 ft 77 kts 61°
2026-05-06 17:03 51.51531 7.60360 441 ft 71 kts 60°
2026-05-06 17:04 51.51758 7.61002 418 ft 61 kts 60°
2026-05-06 17:04 51.51984 7.61723 535 ft 76 kts 75°